San Luis County Regional Airport
KSBP : rendu visible

Aérodrome :











RETROUVEZ-NOUS SUR...

 
LOGIN :

S'inscrire | Disclaimer

   EN    FR    IT 

 









Légende :    VFR   VFR Marginal   IFR   IFR Intensif   IFR Très Intensif
Visi : 
Plafond : 
>= 8 km
>= 3000ft
5 à 8 km
1000 à 3000 ft
1500m à 5 km
500 à 1000 ft
800 à 1500m
200 à 500 ft
< 800m
< 200 ft
Symboles :   Orages  Brouillard  Fortes neiges  Fortes précipitations  Vent > 20 kt






- Altitude de l'aérodrome : 212 ft
- Code IATA : SBP


KSBP - San Luis County Regional

DERNIER METAR :
  • 201156Z AUTO 00000KT 8SM BKN019 BKN028 OVC055 11/09 A2953 RMK AO2 RAE06 SLP997 P0000 60002 70002 T01060094 10128 20106 56014

METARs EXPIRÉS :
  • 201056Z AUTO 31008KT 6SM -RA BR SCT034 BKN050 OVC060 11/09 A2954 RMK AO2 RAB06E39B56 SLP001 P0002 T01060089
  • 201039Z AUTO 29010KT 9SM SCT017 BKN040 OVC060 11/08 A2954 RMK AO2 RAB06E39 P0002 T01110083
  • 201020Z AUTO 29008KT 6SM -RA BR BKN017 BKN022 OVC047 11/09 A2955 RMK AO2 RAB06 P0001 T01110089
  • 200956Z AUTO 30010KT 9SM SCT023 SCT030 OVC046 12/08 A2955 RMK AO2 SLP006 T01220078
  • 200943Z AUTO 28009G19KT 7SM SCT022 SCT028 OVC045 12/08 A2955 RMK AO2 T01220078

TAF KSBP
Valide du 20 à 12h jusqu'au 21 à 12h UTC


201121Z 2012/2112 31008KT 5SM -SHRA BR BKN025 OVC050
FM201400 31008KT P6SM -SHRA SCT025 OVC035
FM201600 32006KT P6SM VCSH BKN035 BKN060
FM201900 31010KT P6SM SCT060 BKN150
FM210300 VRB03KT P6SM SCT200



MET'MAP, la Météo Aéronautique d'un coup d'oeil ! - Copyright ORBIFLY Décembre 2007 - Disclaimer

ORBIFLY MET'MAP TEAM :

Programmation & Développement : Alexandra Zaïnal
Conception & Développement : Baudouin d'Aumeries
Co-Programmation & Développement : Marc-Olivier Méhu
Soutien technique & logistique : Manuel Goepfert

Contact : metmap@orbifly.com




SOURCES & CREDITS :

   NOAA       Earth
Advisory